createdAt,value
2018-09-10T00:01:27.704Z,75.00
2018-09-10T00:03:56.118Z,75.00
2018-09-10T00:06:24.599Z,75.00
2018-09-10T00:08:53.090Z,74.90
2018-09-10T00:11:21.979Z,74.90
2018-09-10T00:13:50.948Z,75.00
2018-09-10T00:16:19.316Z,75.00
2018-09-10T00:18:47.805Z,75.00
2018-09-10T00:21:16.121Z,75.00
2018-09-10T00:23:44.448Z,75.10
2018-09-10T00:26:12.858Z,75.50
2018-09-10T00:28:41.172Z,75.20
2018-09-10T00:31:09.724Z,75.20
2018-09-10T00:33:38.087Z,75.20
2018-09-10T00:36:06.375Z,75.20
2018-09-10T00:38:34.820Z,75.30
2018-09-10T00:41:03.175Z,75.30
2018-09-10T00:43:31.534Z,75.30
2018-09-10T00:45:59.969Z,75.40
2018-09-10T00:48:28.347Z,75.40
2018-09-10T00:50:56.905Z,75.50
2018-09-10T00:53:25.377Z,75.40
2018-09-10T00:55:53.785Z,75.50
2018-09-10T00:58:22.192Z,75.60
2018-09-10T01:00:50.894Z,75.60
2018-09-10T01:03:19.177Z,75.50
2018-09-10T01:05:47.681Z,75.50
2018-09-10T01:08:17.683Z,75.60
2018-09-10T01:10:46.059Z,75.60
2018-09-10T01:13:14.372Z,75.60
2018-09-10T01:15:42.806Z,76.10
2018-09-10T01:18:11.241Z,75.60
2018-09-10T01:20:39.712Z,75.50
2018-09-10T01:23:08.089Z,75.50
2018-09-10T01:25:37.530Z,75.50
2018-09-10T01:28:06.003Z,75.60
2018-09-10T01:30:34.345Z,75.60
2018-09-10T01:33:02.928Z,75.60
2018-09-10T01:35:33.251Z,75.60
2018-09-10T01:38:01.609Z,75.60
2018-09-10T01:40:29.968Z,75.60
2018-09-10T01:42:58.332Z,75.60
2018-09-10T01:45:26.876Z,75.60
2018-09-10T01:47:55.316Z,75.50
2018-09-10T01:50:23.773Z,75.60
2018-09-10T01:52:52.165Z,75.50
2018-09-10T01:55:20.550Z,75.60
2018-09-10T01:57:48.868Z,75.60
2018-09-10T02:00:17.374Z,76.40
2018-09-10T02:02:45.862Z,75.70
2018-09-10T02:05:14.172Z,75.60
2018-09-10T02:07:42.700Z,75.60
2018-09-10T02:10:11.088Z,75.70
2018-09-10T02:12:39.414Z,75.60
2018-09-10T02:15:07.879Z,75.60
2018-09-10T02:17:36.441Z,75.80
2018-09-10T02:20:04.924Z,75.80
2018-09-10T02:22:33.237Z,75.70
2018-09-10T02:25:01.733Z,75.70
2018-09-10T02:27:30.183Z,75.80
2018-09-10T02:29:58.537Z,75.90
2018-09-10T02:32:26.857Z,75.80
2018-09-10T02:34:55.230Z,76.00
2018-09-10T02:37:23.888Z,75.90
2018-09-10T02:39:52.305Z,76.10
2018-09-10T02:42:20.649Z,76.10
2018-09-10T02:44:49.187Z,76.10
2018-09-10T02:47:17.551Z,76.30
2018-09-10T02:49:46.170Z,76.20
2018-09-10T02:52:14.704Z,76.30
2018-09-10T02:54:43.050Z,76.30
2018-09-10T02:57:11.464Z,76.30
2018-09-10T02:59:40.061Z,76.30
2018-09-10T03:02:08.375Z,76.30
2018-09-10T03:04:36.854Z,76.40
2018-09-10T03:07:05.208Z,76.40
2018-09-10T03:09:33.683Z,76.50
2018-09-10T03:12:02.179Z,76.50
2018-09-10T03:14:30.475Z,76.60
2018-09-10T03:16:59.014Z,76.70
2018-09-10T03:19:27.726Z,76.70
2018-09-10T03:21:56.228Z,76.70
2018-09-10T03:24:24.537Z,76.60
2018-09-10T03:26:52.833Z,76.70
2018-09-10T03:29:21.179Z,76.70
2018-09-10T03:31:49.689Z,76.80
2018-09-10T03:34:18.023Z,76.70
2018-09-10T03:36:46.447Z,76.80
2018-09-10T03:39:14.755Z,76.80
2018-09-10T03:41:43.151Z,76.90
2018-09-10T03:44:11.831Z,77.00
2018-09-10T03:46:40.145Z,77.00
2018-09-10T03:49:08.759Z,77.10
2018-09-10T03:51:37.850Z,77.20
2018-09-10T03:54:06.317Z,77.30
2018-09-10T03:56:34.790Z,77.30
2018-09-10T03:59:03.299Z,77.30
2018-09-10T04:01:31.590Z,77.20
2018-09-10T04:04:00.478Z,77.30
2018-09-10T04:06:28.773Z,77.30
2018-09-10T04:08:57.124Z,77.40
2018-09-10T04:11:25.665Z,77.40
2018-09-10T04:13:54.047Z,77.40
2018-09-10T04:16:22.380Z,77.40
2018-09-10T04:18:50.827Z,77.50
2018-09-10T04:21:19.143Z,77.50
2018-09-10T04:23:47.486Z,77.50
2018-09-10T04:26:15.861Z,77.50
2018-09-10T04:28:49.082Z,77.50
2018-09-10T04:31:17.486Z,77.50
2018-09-10T04:33:45.856Z,77.50
2018-09-10T04:36:14.287Z,77.60
2018-09-10T04:38:42.606Z,78.10
2018-09-10T04:41:10.937Z,77.70
2018-09-10T04:43:39.272Z,77.60
2018-09-10T04:46:07.600Z,77.60
2018-09-10T04:48:35.913Z,77.60
2018-09-10T04:51:04.319Z,77.70
2018-09-10T04:53:32.731Z,77.80
2018-09-10T04:56:01.099Z,77.90
2018-09-10T04:58:30.238Z,78.70
2018-09-10T05:00:58.735Z,77.90
2018-09-10T05:03:27.277Z,77.90
2018-09-10T05:05:55.631Z,78.00
2018-09-10T05:08:23.996Z,78.00
2018-09-10T05:10:52.316Z,78.00
2018-09-10T05:13:20.725Z,78.10
2018-09-10T05:15:49.121Z,78.10
2018-09-10T05:18:17.435Z,78.40
2018-09-10T05:20:45.846Z,78.40
2018-09-10T05:23:14.611Z,78.40
2018-09-10T05:25:43.216Z,78.30
2018-09-10T05:28:11.663Z,78.30
2018-09-10T05:30:40.212Z,78.30
2018-09-10T05:33:08.632Z,78.30
2018-09-10T05:35:36.970Z,78.40
2018-09-10T05:38:05.313Z,78.50
2018-09-10T05:40:35.025Z,78.70
2018-09-10T05:43:03.349Z,78.30
2018-09-10T05:45:31.644Z,78.30
2018-09-10T05:47:59.990Z,78.30
2018-09-10T05:50:28.285Z,78.30
2018-09-10T05:52:56.649Z,78.30
2018-09-10T05:55:24.987Z,78.30
2018-09-10T05:57:53.512Z,78.30
2018-09-10T06:03:14.213Z,78.60
2018-09-10T06:05:42.522Z,78.70
2018-09-10T06:08:11.188Z,78.70
2018-09-10T06:10:39.853Z,78.90
2018-09-10T06:13:11.854Z,78.90
2018-09-10T06:15:40.307Z,78.90
2018-09-10T06:18:08.711Z,78.80
2018-09-10T06:20:39.114Z,78.80
2018-09-10T06:23:07.564Z,78.90
2018-09-10T06:25:35.881Z,78.80
2018-09-10T06:28:04.329Z,78.90
2018-09-10T06:30:32.719Z,79.00
2018-09-10T06:33:01.073Z,79.00
2018-09-10T06:35:29.499Z,79.10
2018-09-10T06:37:57.865Z,79.20
2018-09-10T06:40:30.217Z,79.30
2018-09-10T06:42:58.669Z,79.20
2018-09-10T06:45:26.972Z,79.30
2018-09-10T06:47:55.346Z,79.30
2018-09-10T06:50:23.742Z,79.10
2018-09-10T06:52:52.301Z,79.20
2018-09-10T06:55:20.694Z,79.20
2018-09-10T06:57:49.041Z,79.20
2018-09-10T07:00:17.477Z,79.30
2018-09-10T07:02:46.270Z,79.30
2018-09-10T07:05:14.661Z,79.30
2018-09-10T07:07:43.246Z,79.30
2018-09-10T07:10:11.646Z,79.20
2018-09-10T07:12:40.172Z,79.20
2018-09-10T07:15:08.610Z,79.10
2018-09-10T07:17:37.048Z,79.00
2018-09-10T07:20:06.857Z,78.80
2018-09-10T07:22:35.533Z,78.80
2018-09-10T07:25:04.142Z,78.80
2018-09-10T07:27:32.673Z,78.50
2018-09-10T07:30:01.071Z,78.50
2018-09-10T07:32:29.539Z,78.50
2018-09-10T07:34:57.891Z,78.30
2018-09-10T07:37:27.063Z,78.40
2018-09-10T07:39:55.422Z,78.40
2018-09-10T07:42:23.931Z,78.40
2018-09-10T07:44:52.482Z,78.30
2018-09-10T07:47:20.793Z,78.30
2018-09-10T07:49:49.156Z,78.20
2018-09-10T07:52:17.554Z,78.10
2018-09-10T07:54:45.982Z,78.00
2018-09-10T07:57:14.338Z,78.00
2018-09-10T07:59:42.728Z,77.90
2018-09-10T08:02:11.159Z,77.80
2018-09-10T08:04:39.671Z,77.70
2018-09-10T08:07:07.989Z,77.70
2018-09-10T08:09:36.532Z,77.70
2018-09-10T08:12:05.290Z,77.50
2018-09-10T08:14:33.767Z,77.40
2018-09-10T08:17:02.305Z,78.00
2018-09-10T08:19:30.773Z,77.30
2018-09-10T08:21:59.598Z,77.30
2018-09-10T08:24:28.041Z,77.20
2018-09-10T08:26:56.442Z,77.00
2018-09-10T08:29:25.010Z,77.10
2018-09-10T08:31:53.518Z,77.00
2018-09-10T08:34:22.074Z,77.20
2018-09-10T08:36:50.657Z,77.00
2018-09-10T08:39:19.037Z,77.00
2018-09-10T08:41:47.787Z,77.00
2018-09-10T08:44:16.363Z,77.10
2018-09-10T08:46:44.690Z,77.70
2018-09-10T08:49:13.263Z,77.10
2018-09-10T08:51:41.685Z,77.10
2018-09-10T08:54:10.320Z,77.00
2018-09-10T08:56:38.781Z,77.00
2018-09-10T08:59:07.153Z,76.90
2018-09-10T09:01:35.561Z,76.90
2018-09-10T09:04:04.088Z,76.80
2018-09-10T09:06:32.432Z,76.80
2018-09-10T09:09:00.861Z,76.80
2018-09-10T09:11:29.279Z,76.80
2018-09-10T09:13:57.760Z,76.80
2018-09-10T09:16:26.238Z,77.00
2018-09-10T09:18:56.213Z,76.90
2018-09-10T09:21:24.600Z,76.90
2018-09-10T09:23:52.951Z,77.40
2018-09-10T09:26:22.572Z,76.60
2018-09-10T09:28:50.985Z,76.70
2018-09-10T09:31:19.382Z,76.90
2018-09-10T09:33:47.847Z,76.60
2018-09-10T09:36:21.430Z,76.50
2018-09-10T09:38:54.949Z,76.50
2018-09-10T09:41:28.703Z,76.50
2018-09-10T09:44:02.693Z,76.30
2018-09-10T09:46:31.144Z,76.10
2018-09-10T09:49:00.034Z,76.10
2018-09-10T09:51:28.493Z,76.20
2018-09-10T09:53:56.916Z,75.90
2018-09-10T09:56:25.356Z,75.80
2018-09-10T09:58:53.983Z,75.50
2018-09-10T10:01:27.802Z,75.40
2018-09-10T10:03:57.292Z,75.30
2018-09-10T10:06:25.991Z,75.30
2018-09-10T10:08:54.453Z,75.30
2018-09-10T10:11:23.117Z,75.10
2018-09-10T10:13:51.816Z,75.10
2018-09-10T10:16:20.613Z,74.90
2018-09-10T10:18:49.210Z,74.90
2018-09-10T10:21:17.590Z,74.70
2018-09-10T10:23:49.736Z,74.60
2018-09-10T10:26:18.126Z,74.30
2018-09-10T10:28:46.670Z,74.00
2018-09-10T10:31:15.071Z,74.00
2018-09-10T10:33:43.552Z,73.70
2018-09-10T10:36:12.055Z,73.40
2018-09-10T10:38:40.637Z,73.00
2018-09-10T10:41:09.332Z,72.90
2018-09-10T10:43:37.749Z,72.80
2018-09-10T10:46:06.223Z,72.60
2018-09-10T10:48:34.843Z,72.40
2018-09-10T10:51:03.407Z,72.60
2018-09-10T10:53:32.244Z,72.40
2018-09-10T10:56:00.672Z,72.30
2018-09-10T10:58:29.234Z,72.10
2018-09-10T11:00:58.018Z,71.90
2018-09-10T11:03:26.974Z,72.00
2018-09-10T11:05:55.645Z,71.90
2018-09-10T11:08:24.162Z,71.80
2018-09-10T11:10:52.615Z,72.00
2018-09-10T11:13:21.015Z,71.70
2018-09-10T11:15:49.513Z,71.30
2018-09-10T11:18:18.139Z,71.70
2018-09-10T11:20:46.651Z,71.70
2018-09-10T11:23:16.188Z,71.60
2018-09-10T11:25:44.663Z,71.50
2018-09-10T11:28:13.336Z,71.80
2018-09-10T11:30:42.042Z,71.60
2018-09-10T11:33:10.417Z,71.90
2018-09-10T11:35:38.942Z,72.00
2018-09-10T11:38:07.555Z,71.90
2018-09-10T11:40:36.084Z,71.70
2018-09-10T11:43:04.483Z,71.60
2018-09-10T11:45:33.173Z,71.50
2018-09-10T11:48:01.758Z,71.20
2018-09-10T11:50:30.310Z,71.20
2018-09-10T11:52:58.861Z,71.20
2018-09-10T11:55:27.480Z,71.20
2018-09-10T11:57:56.029Z,71.20
2018-09-10T12:00:24.505Z,71.20
2018-09-10T12:02:52.978Z,70.30
2018-09-10T12:05:21.477Z,71.00
2018-09-10T12:07:50.078Z,71.20
2018-09-10T12:10:18.645Z,70.90
2018-09-10T12:12:47.016Z,71.20
2018-09-10T12:15:15.635Z,71.20
2018-09-10T12:17:44.100Z,71.20
2018-09-10T12:20:12.559Z,71.40
2018-09-10T12:22:41.278Z,71.20
2018-09-10T12:25:09.646Z,71.10
2018-09-10T12:27:38.373Z,70.70
2018-09-10T12:30:06.967Z,71.10
2018-09-10T12:32:36.207Z,71.20
2018-09-10T12:35:04.689Z,70.80
2018-09-10T12:37:33.063Z,70.70
2018-09-10T12:40:01.466Z,70.80
2018-09-10T12:42:29.936Z,70.80
2018-09-10T12:44:58.501Z,70.50
2018-09-10T12:47:26.922Z,70.60
2018-09-10T12:49:55.440Z,70.60
2018-09-10T12:52:23.815Z,70.70
2018-09-10T12:54:52.323Z,70.50
2018-09-10T12:57:20.684Z,70.50
2018-09-10T12:59:49.395Z,70.70
2018-09-10T13:02:18.410Z,70.40
2018-09-10T13:04:46.878Z,70.70
2018-09-10T13:07:15.253Z,70.80
2018-09-10T13:09:43.843Z,70.70
2018-09-10T13:12:12.527Z,70.80
2018-09-10T13:14:47.113Z,70.60
2018-09-10T13:17:15.568Z,70.60
2018-09-10T13:19:44.218Z,70.60
2018-09-10T13:22:12.618Z,70.50
2018-09-10T13:24:41.094Z,69.90
2018-09-10T13:27:09.370Z,70.00
2018-09-10T13:29:38.017Z,70.50
2018-09-10T13:32:06.396Z,69.40
2018-09-10T13:34:35.027Z,69.70
2018-09-10T13:37:03.553Z,70.10
2018-09-10T13:39:31.893Z,69.50
2018-09-10T13:42:00.377Z,69.90
2018-09-10T13:44:28.998Z,69.70
2018-09-10T13:46:57.651Z,69.80
2018-09-10T13:52:18.230Z,70.00
2018-09-10T13:54:46.848Z,69.90
2018-09-10T13:57:15.215Z,69.80
2018-09-10T13:59:43.633Z,70.00
2018-09-10T14:02:12.074Z,69.90
2018-09-10T14:04:40.851Z,69.00
2018-09-10T14:07:09.285Z,69.50
2018-09-10T14:09:37.830Z,69.20
2018-09-10T14:12:06.555Z,69.20
2018-09-10T14:14:35.036Z,69.40
2018-09-10T14:17:04.242Z,69.30
2018-09-10T14:19:32.563Z,69.20
2018-09-10T14:22:00.919Z,68.00
2018-09-10T14:24:29.559Z,68.70
2018-09-10T14:26:57.918Z,69.00
2018-09-10T14:29:26.269Z,68.90
2018-09-10T14:31:54.998Z,68.90
2018-09-10T14:34:23.429Z,69.20
2018-09-10T14:36:51.841Z,68.70
2018-09-10T14:39:20.209Z,68.90
2018-09-10T14:41:48.603Z,69.00
2018-09-10T14:44:17.057Z,69.10
2018-09-10T14:46:45.585Z,69.40
2018-09-10T14:49:14.086Z,68.80
2018-09-10T14:51:42.397Z,69.10
2018-09-10T14:54:10.981Z,69.20
2018-09-10T14:56:39.414Z,68.80
2018-09-10T14:59:07.794Z,67.70
2018-09-10T15:01:36.111Z,68.40
2018-09-10T15:04:04.533Z,68.20
2018-09-10T15:06:33.184Z,68.10
2018-09-10T15:09:02.081Z,68.10
2018-09-10T15:11:38.687Z,68.30
2018-09-10T15:14:07.245Z,68.70
2018-09-10T15:16:35.613Z,68.40
2018-09-10T15:19:05.592Z,68.50
2018-09-10T15:21:33.866Z,68.50
2018-09-10T15:24:02.232Z,68.10
2018-09-10T15:26:31.529Z,67.60
2018-09-10T15:29:00.154Z,67.40
2018-09-10T15:31:28.567Z,67.80
2018-09-10T15:33:57.550Z,67.70
2018-09-10T15:36:25.961Z,67.90
2018-09-10T15:38:54.336Z,67.90
2018-09-10T15:41:22.807Z,67.90
2018-09-10T15:43:52.807Z,67.70
2018-09-10T15:46:21.485Z,68.00
2018-09-10T15:48:50.326Z,68.00
2018-09-10T15:51:19.123Z,68.20
2018-09-10T15:53:47.641Z,68.10
2018-09-10T15:56:16.058Z,68.10
2018-09-10T15:58:44.458Z,68.20
2018-09-10T16:01:12.989Z,68.30
2018-09-10T16:03:41.441Z,68.30
2018-09-10T16:06:09.968Z,68.40
2018-09-10T16:08:39.047Z,68.50
2018-09-10T16:11:07.514Z,68.60
2018-09-10T16:13:35.961Z,68.30
2018-09-10T16:16:04.598Z,68.00
2018-09-10T16:18:33.081Z,68.40
2018-09-10T16:23:50.263Z,68.80
2018-09-10T16:26:18.546Z,68.60
2018-09-10T16:28:46.858Z,68.70
2018-09-10T16:31:15.316Z,68.80
2018-09-10T16:33:43.661Z,69.00
2018-09-10T16:36:12.313Z,69.10
2018-09-10T16:38:40.657Z,69.20
2018-09-10T16:41:09.047Z,69.20
2018-09-10T16:43:37.433Z,69.10
2018-09-10T16:46:05.971Z,69.10
2018-09-10T16:48:34.604Z,69.30
2018-09-10T16:51:02.775Z,69.30
2018-09-10T16:53:31.278Z,69.10
2018-09-10T16:55:59.788Z,69.50
2018-09-10T16:58:28.160Z,69.50
2018-09-10T17:00:56.659Z,69.40
2018-09-10T17:03:24.989Z,69.60
2018-09-10T17:05:53.467Z,69.70
2018-09-10T17:08:21.865Z,69.60
2018-09-10T17:10:50.149Z,69.80
2018-09-10T17:13:18.493Z,70.10
2018-09-10T17:15:47.132Z,70.00
2018-09-10T17:18:15.650Z,70.20
2018-09-10T17:20:44.127Z,70.20
2018-09-10T17:23:12.565Z,70.30
2018-09-10T17:25:40.971Z,70.40
2018-09-10T17:28:09.365Z,70.90
2018-09-10T17:30:37.913Z,70.50
2018-09-10T17:33:06.463Z,70.60
2018-09-10T17:35:35.011Z,70.70
2018-09-10T17:38:03.399Z,70.70
2018-09-10T17:40:31.818Z,71.00
2018-09-10T17:43:00.228Z,71.00
2018-09-10T17:45:28.611Z,71.20
2018-09-10T17:47:56.957Z,71.40
2018-09-10T17:50:25.474Z,71.30
2018-09-10T17:52:54.002Z,71.30
2018-09-10T17:55:22.361Z,72.20
2018-09-10T17:57:50.817Z,71.50
2018-09-10T18:00:24.292Z,71.60
2018-09-10T18:02:52.747Z,71.70
2018-09-10T18:05:21.621Z,71.80
2018-09-10T18:07:53.715Z,71.80
2018-09-10T18:10:22.075Z,71.80
2018-09-10T18:12:50.507Z,71.80
2018-09-10T18:15:18.915Z,72.00
2018-09-10T18:17:47.250Z,72.00
2018-09-10T18:20:15.601Z,72.10
2018-09-10T18:22:45.880Z,72.20
2018-09-10T18:25:14.273Z,72.20
2018-09-10T18:27:42.577Z,72.40
2018-09-10T18:30:11.110Z,72.50
2018-09-10T18:32:39.456Z,72.60
2018-09-10T18:35:07.781Z,72.80
2018-09-10T18:37:36.245Z,72.80
2018-09-10T18:40:04.745Z,72.90
2018-09-10T18:42:33.087Z,72.90
2018-09-10T18:45:01.780Z,73.10
2018-09-10T18:47:30.777Z,73.10
2018-09-10T18:49:59.116Z,73.30
2018-09-10T18:52:27.501Z,73.70
2018-09-10T18:54:56.011Z,73.20
2018-09-10T18:57:24.357Z,73.30
2018-09-10T18:59:52.786Z,73.40
2018-09-10T19:02:21.161Z,73.40
2018-09-10T19:04:49.639Z,73.40
2018-09-10T19:07:18.043Z,73.30
2018-09-10T19:09:46.468Z,73.50
2018-09-10T19:12:15.135Z,73.50
2018-09-10T19:14:43.578Z,73.50
2018-09-10T19:17:11.994Z,73.60
2018-09-10T19:19:40.387Z,73.60
2018-09-10T19:22:08.840Z,73.70
2018-09-10T19:24:37.208Z,73.70
2018-09-10T19:27:05.610Z,73.80
2018-09-10T19:29:34.005Z,73.80
2018-09-10T19:32:02.398Z,73.70
2018-09-10T19:34:30.765Z,73.90
2018-09-10T19:36:59.153Z,73.90
2018-09-10T19:39:27.647Z,73.90
2018-09-10T19:41:56.174Z,74.10
2018-09-10T19:44:24.525Z,74.20
2018-09-10T19:46:52.914Z,74.30
2018-09-10T19:49:21.177Z,74.40
2018-09-10T19:51:49.520Z,74.70
2018-09-10T19:54:17.922Z,74.60
2018-09-10T19:56:46.335Z,74.70
2018-09-10T19:59:14.795Z,74.80
2018-09-10T20:01:43.269Z,75.00
2018-09-10T20:04:11.716Z,75.00
2018-09-10T20:06:40.213Z,75.10
2018-09-10T20:09:10.017Z,75.10
2018-09-10T20:11:38.354Z,75.10
2018-09-10T20:14:06.803Z,75.10
2018-09-10T20:16:35.189Z,75.10
2018-09-10T20:19:03.698Z,75.30
2018-09-10T20:21:32.029Z,75.40
2018-09-10T20:24:00.399Z,75.50
2018-09-10T20:26:28.775Z,75.40
2018-09-10T20:28:57.086Z,75.50
2018-09-10T20:31:25.467Z,75.60
2018-09-10T20:33:59.353Z,75.70
2018-09-10T20:36:27.731Z,75.60
2018-09-10T20:38:56.018Z,75.60
2018-09-10T20:41:24.453Z,75.60
2018-09-10T20:43:52.873Z,75.60
2018-09-10T20:46:21.186Z,75.70
2018-09-10T20:48:49.730Z,76.40
2018-09-10T20:51:18.097Z,75.90
2018-09-10T20:53:47.318Z,76.00
2018-09-10T20:56:15.641Z,76.00
2018-09-10T20:58:44.119Z,76.00
2018-09-10T21:01:12.485Z,76.10
2018-09-10T21:03:40.890Z,76.90
2018-09-10T21:06:09.766Z,76.20
2018-09-10T21:08:38.070Z,76.30
2018-09-10T21:11:06.485Z,76.40
2018-09-10T21:13:34.949Z,76.40
2018-09-10T21:16:03.432Z,75.90
2018-09-10T21:18:31.751Z,76.50
2018-09-10T21:21:00.146Z,76.60
2018-09-10T21:23:28.468Z,76.50
2018-09-10T21:25:56.845Z,76.60
2018-09-10T21:28:25.187Z,76.60
2018-09-10T21:30:53.545Z,76.60
2018-09-10T21:33:23.049Z,76.70
2018-09-10T21:35:51.408Z,76.70
2018-09-10T21:38:19.763Z,76.70
2018-09-10T21:40:48.115Z,76.80
2018-09-10T21:43:16.590Z,76.80
2018-09-10T21:45:44.946Z,77.60
2018-09-10T21:48:13.421Z,76.90
2018-09-10T21:50:41.782Z,76.90
2018-09-10T21:53:10.181Z,77.00
2018-09-10T21:55:38.469Z,77.70
2018-09-10T21:58:07.082Z,77.00
2018-09-10T22:00:35.395Z,77.10
2018-09-10T22:03:03.933Z,77.10
2018-09-10T22:05:32.247Z,77.20
2018-09-10T22:08:00.761Z,77.20
2018-09-10T22:10:29.177Z,77.40
2018-09-10T22:12:57.647Z,77.30
2018-09-10T22:15:46.910Z,77.30
2018-09-10T22:18:15.268Z,77.30
2018-09-10T22:20:43.975Z,77.30
2018-09-10T22:23:12.327Z,77.30
2018-09-10T22:25:40.730Z,77.50
2018-09-10T22:28:09.068Z,78.00
2018-09-10T22:30:37.975Z,77.40
2018-09-10T22:33:06.985Z,77.50
2018-09-10T22:35:35.282Z,78.10
2018-09-10T22:38:03.676Z,77.60
2018-09-10T22:40:32.187Z,77.60
2018-09-10T22:43:00.874Z,77.70
2018-09-10T22:45:29.250Z,77.70
2018-09-10T22:47:57.601Z,77.90
2018-09-10T22:50:26.070Z,78.00
2018-09-10T22:52:54.537Z,78.00
2018-09-10T22:55:22.828Z,77.90
2018-09-10T22:57:51.429Z,77.90
2018-09-10T23:00:19.891Z,77.90
2018-09-10T23:02:48.235Z,77.90
2018-09-10T23:05:17.225Z,78.00
2018-09-10T23:07:45.543Z,78.10
2018-09-10T23:10:13.799Z,78.00
2018-09-10T23:12:47.013Z,78.10
2018-09-10T23:15:15.351Z,78.20
2018-09-10T23:17:43.649Z,78.30
2018-09-10T23:20:12.293Z,78.30
2018-09-10T23:22:40.651Z,78.20
2018-09-10T23:25:08.953Z,78.20
2018-09-10T23:27:37.328Z,78.30
2018-09-10T23:30:05.932Z,78.30
2018-09-10T23:32:34.419Z,78.30
2018-09-10T23:35:03.192Z,78.40
2018-09-10T23:37:31.626Z,78.40
2018-09-10T23:39:59.942Z,78.40
2018-09-10T23:42:28.279Z,78.50
2018-09-10T23:44:56.642Z,78.50
2018-09-10T23:47:25.016Z,78.60
2018-09-10T23:49:53.594Z,78.50
2018-09-10T23:52:21.915Z,78.50
2018-09-10T23:54:50.292Z,78.60
2018-09-10T23:57:18.760Z,78.60
2018-09-10T23:59:47.598Z,78.60
